Main page
METAR-TAF:

METAR-TAF

Airports :

Exeter Airport

Exeter, England

latitude: 50-44N, longitude: 003-25W, elevation: 30 m

Current weather observation

The report was made 33 minutes ago, at 16:20 UTC
Calm wind
Temperature 13°C
Humidity 94%
Pressure 1008 hPa
Visibility: 9000 m
Few clouds at a height of 800 ft

METAR: EGTE 231620Z 00000KT 9000 FEW008 13/12 Q1008

Time: 17:53 (16:53 UTC)

Forecast

The report was made 2 hours and 59 minutes ago, at 13:54 UTC
Forecast valid from 23 at 15 UTC to 23 at 24 UTC
Wind 3 kt from variable directions
Visibility 10 km or more
Scattered clouds at a height of 2500 ft
Temporary
from 23 at 15 UTC to 23 at 24 UTC
Visibility: 7000 m
Broken clouds at a height of 1200 ft
light rain, drizzle
Probability 30% :
Temporary
from 23 at 18 UTC to 23 at 24 UTC
Visibility: 3000 m
Broken clouds at a height of 500 ft
rain, drizzle

TAF: EGTE 231354Z 2315/2324 VRB03KT 9999 SCT025 TEMPO 2315/2324 7000 -RADZ BKN012 PROB30 TEMPO 2318/2324 3000 RADZ BKN005

Weather observations and forecasts of more than 4000 airports (METAR and TAF reports).

The available stations are represented by yellow and red dots on the map.

Hover mouse over dot to see the name of the station.

Then click to see weather observations and forecasts.

To change the map : click on the green buttons with a black cross to zoom in, on the green button with a dash to zoom out, or on the green arrows for adjacent maps.


METAR-TAF: